sensor_id;sensor_type;location;lat;lon;timestamp;temperature;humidity
49821;DHT22;36893;52.520;13.450;2023-03-25T00:06:06;21.80;75.80
49821;DHT22;36893;52.520;13.450;2023-03-25T00:16:08;21.80;75.70
49821;DHT22;36893;52.520;13.450;2023-03-25T00:26:09;21.80;75.70
49821;DHT22;36893;52.520;13.450;2023-03-25T00:36:11;21.80;75.70
49821;DHT22;36893;52.520;13.450;2023-03-25T00:46:13;21.70;75.60
49821;DHT22;36893;52.520;13.450;2023-03-25T00:56:15;21.70;75.60
49821;DHT22;36893;52.520;13.450;2023-03-25T01:06:16;21.70;75.50
49821;DHT22;36893;52.520;13.450;2023-03-25T01:16:16;21.70;75.50
49821;DHT22;36893;52.520;13.450;2023-03-25T01:26:17;21.70;75.50
49821;DHT22;36893;52.520;13.450;2023-03-25T01:36:18;21.70;75.50
49821;DHT22;36893;52.520;13.450;2023-03-25T01:46:20;21.70;75.40
49821;DHT22;36893;52.520;13.450;2023-03-25T01:56:34;21.70;75.40
49821;DHT22;36893;52.520;13.450;2023-03-25T02:06:44;21.70;75.50
49821;DHT22;36893;52.520;13.450;2023-03-25T02:28:07;21.70;75.40
49821;DHT22;36893;52.520;13.450;2023-03-25T02:49:05;21.60;75.30
49821;DHT22;36893;52.520;13.450;2023-03-25T02:59:08;21.60;75.30
49821;DHT22;36893;52.520;13.450;2023-03-25T03:09:43;21.60;75.20
49821;DHT22;36893;52.520;13.450;2023-03-25T03:19:49;21.60;75.20
49821;DHT22;36893;52.520;13.450;2023-03-25T03:30:06;21.60;76.00
49821;DHT22;36893;52.520;13.450;2023-03-25T03:40:16;21.60;75.10
49821;DHT22;36893;52.520;13.450;2023-03-25T03:50:31;21.60;75.20
49821;DHT22;36893;52.520;13.450;2023-03-25T04:00:50;21.60;75.10
49821;DHT22;36893;52.520;13.450;2023-03-25T04:11:10;21.60;75.10
49821;DHT22;36893;52.520;13.450;2023-03-25T04:21:11;21.60;75.10
49821;DHT22;36893;52.520;13.450;2023-03-25T04:31:15;21.60;75.00
49821;DHT22;36893;52.520;13.450;2023-03-25T04:41:16;21.60;75.00
49821;DHT22;36893;52.520;13.450;2023-03-25T04:51:17;21.60;75.00
49821;DHT22;36893;52.520;13.450;2023-03-25T05:01:25;21.60;75.00
49821;DHT22;36893;52.520;13.450;2023-03-25T05:11:31;21.50;74.90
49821;DHT22;36893;52.520;13.450;2023-03-25T05:21:33;21.60;74.90
49821;DHT22;36893;52.520;13.450;2023-03-25T05:31:37;21.60;74.90
49821;DHT22;36893;52.520;13.450;2023-03-25T05:41:38;21.50;74.70
49821;DHT22;36893;52.520;13.450;2023-03-25T05:51:38;21.50;74.70
49821;DHT22;36893;52.520;13.450;2023-03-25T06:01:39;21.60;74.80
49821;DHT22;36893;52.520;13.450;2023-03-25T06:11:44;21.50;74.70
49821;DHT22;36893;52.520;13.450;2023-03-25T06:21:52;21.60;74.70
49821;DHT22;36893;52.520;13.450;2023-03-25T06:31:54;21.60;74.70
49821;DHT22;36893;52.520;13.450;2023-03-25T06:41:54;21.50;74.60
49821;DHT22;36893;52.520;13.450;2023-03-25T06:51:55;21.50;74.60
49821;DHT22;36893;52.520;13.450;2023-03-25T07:01:56;21.60;74.60
49821;DHT22;36893;52.520;13.450;2023-03-25T07:11:57;21.50;74.50
49821;DHT22;36893;52.520;13.450;2023-03-25T07:21:58;21.50;74.50
49821;DHT22;36893;52.520;13.450;2023-03-25T07:31:58;21.60;74.50
49821;DHT22;36893;52.520;13.450;2023-03-25T07:41:59;21.50;74.40
49821;DHT22;36893;52.520;13.450;2023-03-25T07:52:00;21.60;74.50
49821;DHT22;36893;52.520;13.450;2023-03-25T08:02:00;21.50;74.40
49821;DHT22;36893;52.520;13.450;2023-03-25T08:12:01;21.60;74.50
49821;DHT22;36893;52.520;13.450;2023-03-25T08:22:02;21.60;74.50
49821;DHT22;36893;52.520;13.450;2023-03-25T08:32:03;21.60;74.60
49821;DHT22;36893;52.520;13.450;2023-03-25T08:42:05;21.60;74.50
49821;DHT22;36893;52.520;13.450;2023-03-25T08:52:07;21.60;75.20
49821;DHT22;36893;52.520;13.450;2023-03-25T09:02:10;21.60;74.20
49821;DHT22;36893;52.520;13.450;2023-03-25T09:12:11;21.60;74.00
49821;DHT22;36893;52.520;13.450;2023-03-25T09:22:12;21.70;73.90
49821;DHT22;36893;52.520;13.450;2023-03-25T09:32:13;21.70;73.80
49821;DHT22;36893;52.520;13.450;2023-03-25T09:42:37;21.70;73.70
49821;DHT22;36893;52.520;13.450;2023-03-25T10:04:10;21.70;73.50
49821;DHT22;36893;52.520;13.450;2023-03-25T10:14:36;21.80;73.40
49821;DHT22;36893;52.520;13.450;2023-03-25T10:24:52;21.70;73.20
49821;DHT22;36893;52.520;13.450;2023-03-25T10:34:56;21.70;73.10
49821;DHT22;36893;52.520;13.450;2023-03-25T10:44:58;21.70;72.90
49821;DHT22;36893;52.520;13.450;2023-03-25T10:54:58;21.80;72.90
49821;DHT22;36893;52.520;13.450;2023-03-25T11:05:02;21.80;72.80
49821;DHT22;36893;52.520;13.450;2023-03-25T11:15:04;21.90;72.80
49821;DHT22;36893;52.520;13.450;2023-03-25T11:25:15;21.90;72.70
49821;DHT22;36893;52.520;13.450;2023-03-25T11:35:24;21.90;72.80
49821;DHT22;36893;52.520;13.450;2023-03-25T11:45:37;21.90;73.60
49821;DHT22;36893;52.520;13.450;2023-03-25T11:55:47;21.90;72.80
49821;DHT22;36893;52.520;13.450;2023-03-25T12:06:19;21.90;72.80
49821;DHT22;36893;52.520;13.450;2023-03-25T12:16:44;21.90;72.80
49821;DHT22;36893;52.520;13.450;2023-03-25T12:27:10;22.00;72.70
49821;DHT22;36893;52.520;13.450;2023-03-25T12:37:24;22.10;72.90
49821;DHT22;36893;52.520;13.450;2023-03-25T12:47:55;22.10;73.10
49821;DHT22;36893;52.520;13.450;2023-03-25T13:09:20;22.10;73.40
49821;DHT22;36893;52.520;13.450;2023-03-25T13:19:26;22.10;73.30
49821;DHT22;36893;52.520;13.450;2023-03-25T13:29:53;22.10;73.30
49821;DHT22;36893;52.520;13.450;2023-03-25T13:50:24;22.10;73.20
49821;DHT22;36893;52.520;13.450;2023-03-25T14:21:40;22.20;73.70
49821;DHT22;36893;52.520;13.450;2023-03-25T14:32:01;22.10;72.80
49821;DHT22;36893;52.520;13.450;2023-03-25T14:42:10;22.10;72.80
49821;DHT22;36893;52.520;13.450;2023-03-25T14:52:38;22.10;72.70
49821;DHT22;36893;52.520;13.450;2023-03-25T15:02:43;22.10;72.60
49821;DHT22;36893;52.520;13.450;2023-03-25T15:13:04;22.10;72.50
49821;DHT22;36893;52.520;13.450;2023-03-25T15:23:27;22.10;72.40
49821;DHT22;36893;52.520;13.450;2023-03-25T16:04:59;22.00;72.10
49821;DHT22;36893;52.520;13.450;2023-03-25T16:15:03;22.00;72.00
49821;DHT22;36893;52.520;13.450;2023-03-25T16:25:11;21.90;71.90
49821;DHT22;36893;52.520;13.450;2023-03-25T16:35:20;21.90;71.90
49821;DHT22;36893;52.520;13.450;2023-03-25T16:45:23;21.90;71.80
49821;DHT22;36893;52.520;13.450;2023-03-25T16:55:41;21.90;71.70
49821;DHT22;36893;52.520;13.450;2023-03-25T17:05:52;21.80;71.60
49821;DHT22;36893;52.520;13.450;2023-03-25T17:16:06;21.90;71.60
49821;DHT22;36893;52.520;13.450;2023-03-25T17:26:09;21.80;71.50
49821;DHT22;36893;52.520;13.450;2023-03-25T17:36:18;21.80;71.50
49821;DHT22;36893;52.520;13.450;2023-03-25T17:46:21;21.80;71.40
49821;DHT22;36893;52.520;13.450;2023-03-25T17:56:26;21.80;71.40
49821;DHT22;36893;52.520;13.450;2023-03-25T18:06:27;21.80;71.50
49821;DHT22;36893;52.520;13.450;2023-03-25T18:16:27;21.70;71.40
49821;DHT22;36893;52.520;13.450;2023-03-25T18:26:28;21.70;71.60
49821;DHT22;36893;52.520;13.450;2023-03-25T18:36:29;21.70;71.80
49821;DHT22;36893;52.520;13.450;2023-03-25T18:46:29;21.80;72.20
49821;DHT22;36893;52.520;13.450;2023-03-25T18:56:30;21.80;72.40
49821;DHT22;36893;52.520;13.450;2023-03-25T19:06:31;21.80;72.60
49821;DHT22;36893;52.520;13.450;2023-03-25T19:16:31;21.80;72.70
49821;DHT22;36893;52.520;13.450;2023-03-25T19:26:32;21.80;72.80
49821;DHT22;36893;52.520;13.450;2023-03-25T19:36:32;21.90;73.10
49821;DHT22;36893;52.520;13.450;2023-03-25T19:46:34;21.90;73.10
49821;DHT22;36893;52.520;13.450;2023-03-25T19:56:35;21.90;73.20
49821;DHT22;36893;52.520;13.450;2023-03-25T20:06:35;21.90;73.20
49821;DHT22;36893;52.520;13.450;2023-03-25T20:16:36;21.90;73.30
49821;DHT22;36893;52.520;13.450;2023-03-25T20:26:37;21.90;73.50
49821;DHT22;36893;52.520;13.450;2023-03-25T20:36:37;21.90;73.50
49821;DHT22;36893;52.520;13.450;2023-03-25T20:46:38;21.90;73.60
49821;DHT22;36893;52.520;13.450;2023-03-25T20:56:40;21.90;73.60
49821;DHT22;36893;52.520;13.450;2023-03-25T21:06:41;21.90;73.70
49821;DHT22;36893;52.520;13.450;2023-03-25T21:16:42;21.90;73.70
49821;DHT22;36893;52.520;13.450;2023-03-25T21:26:43;21.90;73.70
49821;DHT22;36893;52.520;13.450;2023-03-25T21:36:43;21.90;73.70
49821;DHT22;36893;52.520;13.450;2023-03-25T21:46:44;21.90;73.70
49821;DHT22;36893;52.520;13.450;2023-03-25T21:56:44;21.90;73.80
49821;DHT22;36893;52.520;13.450;2023-03-25T22:06:51;21.90;73.90
49821;DHT22;36893;52.520;13.450;2023-03-25T22:16:51;21.90;73.90
49821;DHT22;36893;52.520;13.450;2023-03-25T22:26:52;21.90;73.90
49821;DHT22;36893;52.520;13.450;2023-03-25T22:36:53;21.90;74.00
49821;DHT22;36893;52.520;13.450;2023-03-25T22:46:53;21.80;74.10
49821;DHT22;36893;52.520;13.450;2023-03-25T22:56:54;21.80;74.10
49821;DHT22;36893;52.520;13.450;2023-03-25T23:06:56;21.80;74.20
49821;DHT22;36893;52.520;13.450;2023-03-25T23:16:56;21.80;74.30
49821;DHT22;36893;52.520;13.450;2023-03-25T23:26:57;21.80;74.30
49821;DHT22;36893;52.520;13.450;2023-03-25T23:36:57;21.70;74.20
49821;DHT22;36893;52.520;13.450;2023-03-25T23:46:58;21.80;74.20
49821;DHT22;36893;52.520;13.450;2023-03-25T23:57:02;21.70;74.10
